createdAt,value
2019-05-11T00:00:46.656Z,9.13
2019-05-11T00:03:35.800Z,9.16
2019-05-11T00:06:23.760Z,9.19
2019-05-11T00:09:09.728Z,9.20
2019-05-11T00:11:58.832Z,9.14
2019-05-11T00:14:45.472Z,9.27
2019-05-11T00:17:31.659Z,9.34
2019-05-11T00:20:17.797Z,9.39
2019-05-11T00:23:05.457Z,9.23
2019-05-11T00:25:51.697Z,9.30
2019-05-11T00:28:38.010Z,9.31
2019-05-11T00:31:24.235Z,9.28
2019-05-11T00:34:12.121Z,9.13
2019-05-11T00:36:58.367Z,9.27
2019-05-11T00:39:48.406Z,9.32
2019-05-11T00:42:36.641Z,9.27
2019-05-11T00:45:22.974Z,9.20
2019-05-11T00:48:09.283Z,9.11
2019-05-11T00:50:59.914Z,9.07
2019-05-11T00:53:47.271Z,9.13
2019-05-11T00:56:33.222Z,9.17
2019-05-11T00:59:21.854Z,9.18
2019-05-11T01:02:07.647Z,9.17
2019-05-11T01:04:53.731Z,9.13
2019-05-11T01:07:39.817Z,9.07
2019-05-11T01:10:41.050Z,8.89
2019-05-11T01:13:16.038Z,9.02
2019-05-11T01:16:02.396Z,9.10
2019-05-11T01:19:00.227Z,8.79
2019-05-11T01:21:46.506Z,8.87
2019-05-11T01:24:32.907Z,8.86
2019-05-11T01:27:18.851Z,8.75
2019-05-11T01:30:05.571Z,8.78
2019-05-11T01:32:51.832Z,8.71
2019-05-11T01:35:37.907Z,8.85
2019-05-11T01:38:27.503Z,8.93
2019-05-11T01:41:13.681Z,8.95
2019-05-11T01:43:59.796Z,8.94
2019-05-11T01:46:45.936Z,9.01
2019-05-11T01:49:32.426Z,9.00
2019-05-11T01:52:22.141Z,9.00
2019-05-11T01:55:08.032Z,9.02
2019-05-11T01:57:56.587Z,9.00
2019-05-11T02:00:43.053Z,9.05
2019-05-11T02:03:29.148Z,9.10
2019-05-11T02:06:16.917Z,9.09
2019-05-11T02:09:04.626Z,9.12
2019-05-11T02:11:50.501Z,9.07
2019-05-11T02:14:38.788Z,9.16
2019-05-11T02:17:24.951Z,9.13
2019-05-11T02:20:14.101Z,9.12
2019-05-11T02:23:00.119Z,9.14
2019-05-11T02:25:46.311Z,9.16
2019-05-11T02:28:32.332Z,9.16
2019-05-11T02:31:18.630Z,9.14
2019-05-11T02:34:04.806Z,9.14
2019-05-11T02:36:50.816Z,9.06
2019-05-11T02:39:36.996Z,8.99
2019-05-11T02:42:23.253Z,9.01
2019-05-11T02:45:10.153Z,9.00
2019-05-11T02:47:57.832Z,9.05
2019-05-11T02:50:44.633Z,9.06
2019-05-11T02:53:31.505Z,9.05
2019-05-11T02:56:20.685Z,9.07
2019-05-11T02:59:06.718Z,9.06
2019-05-11T03:01:52.765Z,9.06
2019-05-11T03:04:38.867Z,9.07
2019-05-11T03:07:27.672Z,9.06
2019-05-11T03:10:13.922Z,8.99
2019-05-11T03:12:59.976Z,9.04
2019-05-11T03:15:46.048Z,9.02
2019-05-11T03:18:32.118Z,8.98
2019-05-11T03:21:18.248Z,9.00
2019-05-11T03:24:04.418Z,9.05
2019-05-11T03:26:50.487Z,9.07
2019-05-11T03:29:36.683Z,9.06
2019-05-11T03:32:22.854Z,9.03
2019-05-11T03:35:08.997Z,9.06
2019-05-11T03:37:54.954Z,9.06
2019-05-11T03:40:41.193Z,8.93
2019-05-11T03:43:27.231Z,8.95
2019-05-11T03:46:13.511Z,8.97
2019-05-11T03:48:59.444Z,8.94
2019-05-11T03:51:45.576Z,8.94
2019-05-11T03:54:31.911Z,8.99
2019-05-11T03:57:18.004Z,8.98
2019-05-11T04:00:04.784Z,8.97
2019-05-11T04:02:51.085Z,9.00
2019-05-11T04:05:37.299Z,9.10
2019-05-11T04:08:23.418Z,9.04
2019-05-11T04:11:09.737Z,9.04
2019-05-11T04:13:55.762Z,8.96
2019-05-11T04:16:42.268Z,8.98
2019-05-11T04:19:28.146Z,9.05
2019-05-11T04:22:14.268Z,9.03
2019-05-11T04:25:00.503Z,9.05
2019-05-11T04:27:46.589Z,9.09
2019-05-11T04:30:32.797Z,9.02
2019-05-11T04:33:19.133Z,8.99
2019-05-11T04:36:05.247Z,9.03
2019-05-11T04:38:51.318Z,9.10
2019-05-11T04:41:37.738Z,9.09
2019-05-11T04:44:23.832Z,9.09
2019-05-11T04:47:10.164Z,9.13
2019-05-11T04:49:56.331Z,9.13
2019-05-11T04:52:42.431Z,9.18
2019-05-11T04:55:28.777Z,9.16
2019-05-11T04:58:14.837Z,9.22
2019-05-11T05:01:01.254Z,9.21
2019-05-11T05:03:54.291Z,9.19
2019-05-11T05:06:38.811Z,9.15
2019-05-11T05:09:23.825Z,9.23
2019-05-11T05:12:14.087Z,9.23
2019-05-11T05:14:58.216Z,9.24
2019-05-11T05:17:44.296Z,9.25
2019-05-11T05:20:30.482Z,9.34
2019-05-11T05:23:16.696Z,9.24
2019-05-11T05:26:02.850Z,9.33
2019-05-11T05:28:49.027Z,9.26
2019-05-11T05:31:35.917Z,9.22
2019-05-11T05:34:21.756Z,9.44
2019-05-11T05:37:08.206Z,9.49
2019-05-11T05:39:54.161Z,9.54
2019-05-11T05:42:40.296Z,9.49
2019-05-11T05:45:26.566Z,9.60
2019-05-11T05:48:12.708Z,9.71
2019-05-11T05:50:58.807Z,9.74
2019-05-11T05:53:45.083Z,9.80
2019-05-11T05:56:31.080Z,9.85
2019-05-11T05:59:17.272Z,9.88
2019-05-11T06:02:03.460Z,9.94
2019-05-11T06:04:49.587Z,9.99
2019-05-11T06:07:38.751Z,10.13
2019-05-11T06:10:25.156Z,10.16
2019-05-11T06:13:14.283Z,10.12
2019-05-11T06:16:00.789Z,10.24
2019-05-11T06:18:47.037Z,10.24
2019-05-11T06:21:36.888Z,10.42
2019-05-11T06:24:23.176Z,10.48
2019-05-11T06:27:12.540Z,10.57
2019-05-11T06:29:58.732Z,10.45
2019-05-11T06:32:44.790Z,10.46
2019-05-11T06:35:30.943Z,10.28
2019-05-11T06:38:17.002Z,10.31
2019-05-11T06:41:09.106Z,10.27
2019-05-11T06:44:01.310Z,10.16
2019-05-11T06:46:39.702Z,10.22
2019-05-11T06:49:25.742Z,10.27
2019-05-11T06:52:12.023Z,10.19
2019-05-11T06:54:58.166Z,10.23
2019-05-11T06:57:44.179Z,10.25
2019-05-11T07:00:30.350Z,10.30
2019-05-11T07:03:16.609Z,10.40
2019-05-11T07:06:02.678Z,10.62
2019-05-11T07:08:50.144Z,10.56
2019-05-11T07:11:36.556Z,10.73
2019-05-11T07:14:22.616Z,10.54
2019-05-11T07:17:11.762Z,10.57
2019-05-11T07:19:58.132Z,10.69
2019-05-11T07:22:45.872Z,10.75
2019-05-11T07:25:32.101Z,10.87
2019-05-11T07:28:18.347Z,10.96
2019-05-11T07:31:06.518Z,10.81
2019-05-11T07:33:52.601Z,10.94
2019-05-11T07:36:38.961Z,10.94
2019-05-11T07:39:27.928Z,10.94
2019-05-11T07:42:14.196Z,11.15
2019-05-11T07:45:00.311Z,11.14
2019-05-11T07:47:48.548Z,11.00
2019-05-11T07:50:34.577Z,10.81
2019-05-11T07:53:20.851Z,10.71
2019-05-11T07:56:08.304Z,10.57
2019-05-11T07:58:54.501Z,10.42
2019-05-11T08:01:40.632Z,10.45
2019-05-11T08:04:28.814Z,10.33
2019-05-11T08:07:14.966Z,10.39
2019-05-11T08:10:01.207Z,10.51
2019-05-11T08:12:48.055Z,10.44
2019-05-11T08:15:34.414Z,10.18
2019-05-11T08:18:20.687Z,10.39
2019-05-11T08:21:08.861Z,10.48
2019-05-11T08:23:54.861Z,10.37
2019-05-11T08:26:41.135Z,10.54
2019-05-11T08:29:27.991Z,10.76
2019-05-11T08:32:14.315Z,10.72
2019-05-11T08:35:00.500Z,10.83
2019-05-11T08:37:47.879Z,10.79
2019-05-11T08:40:34.137Z,11.03
2019-05-11T08:43:20.418Z,10.98
2019-05-11T08:46:07.985Z,11.03
2019-05-11T08:48:54.071Z,10.93
2019-05-11T08:51:40.184Z,10.97
2019-05-11T08:54:28.676Z,10.80
2019-05-11T08:57:14.365Z,10.82
2019-05-11T09:00:00.699Z,10.92
2019-05-11T09:02:50.412Z,10.98
2019-05-11T09:05:34.873Z,11.10
2019-05-11T09:08:21.094Z,11.15
2019-05-11T09:11:08.394Z,11.05
2019-05-11T09:13:54.882Z,10.92
2019-05-11T09:16:41.061Z,10.94
2019-05-11T09:19:28.525Z,10.81
2019-05-11T09:22:14.896Z,10.76
2019-05-11T09:25:01.211Z,10.65
2019-05-11T09:27:48.224Z,10.82
2019-05-11T09:30:34.536Z,10.81
2019-05-11T09:33:20.933Z,10.86
2019-05-11T09:36:08.599Z,10.77
2019-05-11T09:38:54.968Z,10.82
2019-05-11T09:41:41.161Z,11.02
2019-05-11T09:44:28.826Z,11.04
2019-05-11T09:47:14.936Z,10.92
2019-05-11T09:50:01.677Z,10.99
2019-05-11T09:52:49.037Z,10.93
2019-05-11T09:55:35.437Z,11.08
2019-05-11T09:58:21.580Z,11.10
2019-05-11T10:01:08.864Z,11.22
2019-05-11T10:03:55.262Z,11.06
2019-05-11T10:06:41.276Z,11.06
2019-05-11T10:09:28.170Z,11.11
2019-05-11T10:12:14.557Z,10.82
2019-05-11T10:15:00.692Z,11.03
2019-05-11T10:17:48.319Z,10.91
2019-05-11T10:20:34.412Z,11.07
2019-05-11T10:23:20.542Z,11.00
2019-05-11T10:26:08.000Z,10.94
2019-05-11T10:28:54.332Z,10.97
2019-05-11T10:31:40.396Z,11.15
2019-05-11T10:34:28.473Z,11.00
2019-05-11T10:37:14.792Z,10.98
2019-05-11T10:40:01.067Z,10.83
2019-05-11T10:42:48.338Z,10.78
2019-05-11T10:45:35.053Z,11.14
2019-05-11T10:48:21.176Z,11.23
2019-05-11T10:51:08.219Z,11.02
2019-05-11T10:53:54.456Z,11.38
2019-05-11T10:56:40.576Z,11.58
2019-05-11T10:59:28.319Z,11.54
2019-05-11T11:02:14.722Z,11.31
2019-05-11T11:05:00.901Z,11.13
2019-05-11T11:07:48.459Z,11.23
2019-05-11T11:10:34.836Z,11.26
2019-05-11T11:13:20.936Z,11.10
2019-05-11T11:16:08.335Z,10.94
2019-05-11T11:18:55.702Z,10.88
2019-05-11T11:21:41.697Z,11.06
2019-05-11T11:24:28.704Z,11.36
2019-05-11T11:27:15.051Z,11.28
2019-05-11T11:30:01.235Z,11.32
2019-05-11T11:32:48.257Z,11.00
2019-05-11T11:35:34.659Z,11.03
2019-05-11T11:38:20.979Z,11.37
2019-05-11T11:41:07.750Z,11.06
2019-05-11T11:43:53.746Z,11.08
2019-05-11T11:46:51.330Z,11.15
2019-05-11T11:49:28.515Z,11.33
2019-05-11T11:52:14.916Z,11.09
2019-05-11T11:55:01.037Z,11.20
2019-05-11T11:57:48.647Z,11.01
2019-05-11T12:00:35.752Z,11.06
2019-05-11T12:03:21.832Z,11.02
2019-05-11T12:06:08.691Z,11.24
2019-05-11T12:08:55.227Z,11.08
2019-05-11T12:11:41.347Z,11.10
2019-05-11T12:14:28.176Z,11.05
2019-05-11T12:17:14.622Z,11.13
2019-05-11T12:20:00.775Z,11.29
2019-05-11T12:22:47.636Z,10.91
2019-05-11T12:25:33.793Z,11.03
2019-05-11T12:28:20.002Z,10.80
2019-05-11T12:31:08.540Z,11.45
2019-05-11T12:33:54.331Z,11.86
2019-05-11T12:36:40.566Z,11.38
2019-05-11T12:39:28.200Z,11.49
2019-05-11T12:42:14.500Z,11.68
2019-05-11T12:45:00.706Z,11.64
2019-05-11T12:47:48.017Z,11.43
2019-05-11T12:50:34.353Z,11.24
2019-05-11T12:53:20.628Z,11.36
2019-05-11T12:56:08.260Z,11.49
2019-05-11T12:58:54.445Z,11.51
2019-05-11T13:01:40.563Z,11.66
2019-05-11T13:04:28.269Z,11.80
2019-05-11T13:07:16.695Z,11.70
2019-05-11T13:10:02.591Z,11.50
2019-05-11T13:12:49.508Z,11.74
2019-05-11T13:15:35.821Z,11.94
2019-05-11T13:18:21.960Z,11.69
2019-05-11T13:21:08.575Z,11.78
2019-05-11T13:23:54.645Z,11.58
2019-05-11T13:26:40.856Z,11.64
2019-05-11T13:29:28.660Z,11.63
2019-05-11T13:32:15.396Z,11.70
2019-05-11T13:35:01.529Z,11.49
2019-05-11T13:37:48.135Z,11.46
2019-05-11T13:40:34.511Z,11.35
2019-05-11T13:43:20.630Z,11.61
2019-05-11T13:46:08.725Z,11.51
2019-05-11T13:48:54.871Z,11.66
2019-05-11T13:51:40.994Z,11.66
2019-05-11T13:54:27.179Z,12.07
2019-05-11T13:57:13.296Z,11.83
2019-05-11T13:59:59.450Z,11.63
2019-05-11T14:02:45.665Z,11.62
2019-05-11T14:05:31.806Z,11.59
2019-05-11T14:08:18.549Z,12.13
2019-05-11T14:11:05.190Z,12.35
2019-05-11T14:13:51.311Z,12.57
2019-05-11T14:16:38.036Z,12.05
2019-05-11T14:19:24.241Z,12.64
2019-05-11T14:22:10.298Z,12.84
2019-05-11T14:24:58.631Z,11.96
2019-05-11T14:27:44.685Z,12.16
2019-05-11T14:30:30.912Z,12.61
2019-05-11T14:33:18.117Z,11.80
2019-05-11T14:36:04.646Z,12.15
2019-05-11T14:38:50.830Z,12.20
2019-05-11T14:41:37.998Z,12.28
2019-05-11T14:44:24.870Z,12.20
2019-05-11T14:47:10.991Z,12.39
2019-05-11T14:49:57.849Z,12.30
2019-05-11T14:52:44.153Z,12.54
2019-05-11T14:55:31.968Z,12.48
2019-05-11T14:58:19.869Z,12.79
2019-05-11T15:01:08.647Z,12.79
2019-05-11T15:03:54.361Z,12.57
2019-05-11T15:06:40.535Z,12.30
2019-05-11T15:09:28.565Z,12.40
2019-05-11T15:12:15.031Z,12.59
2019-05-11T15:15:01.165Z,12.58
2019-05-11T15:17:49.162Z,12.41
2019-05-11T15:20:35.691Z,12.41
2019-05-11T15:23:21.920Z,12.41
2019-05-11T15:26:10.111Z,12.74
2019-05-11T15:28:58.384Z,12.98
2019-05-11T15:31:44.340Z,13.23
2019-05-11T15:34:30.538Z,13.06
2019-05-11T15:37:17.822Z,13.31
2019-05-11T15:40:18.785Z,13.34
2019-05-11T15:43:05.292Z,13.25
2019-05-11T15:45:51.341Z,13.29
2019-05-11T15:48:53.375Z,13.37
2019-05-11T15:51:25.715Z,13.37
2019-05-11T15:54:11.937Z,13.23
2019-05-11T15:56:59.987Z,13.26
2019-05-11T15:59:48.159Z,13.23
2019-05-11T16:02:34.383Z,13.23
2019-05-11T16:05:20.429Z,13.11
2019-05-11T16:08:08.376Z,13.11
2019-05-11T16:10:54.828Z,13.04
2019-05-11T16:13:41.005Z,13.00
2019-05-11T16:16:28.079Z,13.03
2019-05-11T16:19:15.415Z,13.04
2019-05-11T16:22:01.810Z,13.25
2019-05-11T16:24:48.522Z,13.44
2019-05-11T16:27:34.850Z,13.39
2019-05-11T16:30:21.799Z,13.52
2019-05-11T16:33:08.839Z,13.83
2019-05-11T16:35:58.023Z,13.81
2019-05-11T16:38:43.440Z,13.93
2019-05-11T16:41:29.500Z,13.94
2019-05-11T16:44:18.280Z,13.66
2019-05-11T16:47:03.796Z,13.77
2019-05-11T16:49:50.015Z,13.86
2019-05-11T16:52:38.474Z,13.76
2019-05-11T16:55:24.441Z,13.85
2019-05-11T16:58:10.321Z,13.85
2019-05-11T17:00:58.276Z,13.65
2019-05-11T17:03:44.495Z,13.59
2019-05-11T17:06:31.813Z,13.40
2019-05-11T17:09:19.705Z,13.45
2019-05-11T17:12:08.399Z,13.52
2019-05-11T17:14:58.421Z,13.59
2019-05-11T17:17:45.035Z,13.94
2019-05-11T17:20:31.233Z,13.96
2019-05-11T17:23:18.314Z,14.01
2019-05-11T17:26:04.761Z,13.89
2019-05-11T17:28:50.882Z,13.83
2019-05-11T17:31:38.020Z,13.71
2019-05-11T17:34:24.455Z,13.66
2019-05-11T17:37:10.569Z,13.43
2019-05-11T17:39:58.650Z,13.51
2019-05-11T17:42:44.980Z,13.34
2019-05-11T17:45:31.166Z,13.53
2019-05-11T17:48:17.941Z,13.53
2019-05-11T17:51:16.763Z,13.39
2019-05-11T17:53:52.184Z,13.41
2019-05-11T17:56:38.994Z,13.18
2019-05-11T17:59:25.055Z,13.09
2019-05-11T18:02:11.244Z,12.97
2019-05-11T18:04:58.449Z,12.95
2019-05-11T18:07:44.641Z,12.79
2019-05-11T18:10:30.895Z,12.55
2019-05-11T18:13:22.776Z,12.54
2019-05-11T18:16:09.458Z,12.39
2019-05-11T18:18:55.679Z,12.25
2019-05-11T18:21:44.489Z,12.23
2019-05-11T18:24:30.623Z,12.08
2019-05-11T18:27:18.522Z,12.03
2019-05-11T18:30:04.924Z,11.88
2019-05-11T18:32:50.999Z,11.75
2019-05-11T18:35:37.062Z,11.66
2019-05-11T18:38:23.194Z,11.62
2019-05-11T18:41:09.539Z,11.45
2019-05-11T18:43:55.685Z,11.37
2019-05-11T18:46:42.034Z,11.26
2019-05-11T18:49:28.625Z,11.17
2019-05-11T18:52:14.747Z,11.05
2019-05-11T18:55:00.810Z,11.05
2019-05-11T18:57:49.146Z,10.98
2019-05-11T19:00:35.103Z,10.87
2019-05-11T19:03:21.649Z,10.80
2019-05-11T19:06:08.839Z,10.81
2019-05-11T19:08:55.059Z,10.62
2019-05-11T19:11:42.829Z,10.62
2019-05-11T19:14:29.571Z,10.49
2019-05-11T19:17:18.009Z,10.49
2019-05-11T19:20:04.299Z,10.38
2019-05-11T19:22:50.533Z,10.32
2019-05-11T19:25:37.561Z,10.23
2019-05-11T19:28:23.574Z,10.12
2019-05-11T19:31:11.297Z,10.08
2019-05-11T19:33:58.145Z,9.98
2019-05-11T19:36:44.614Z,9.92
2019-05-11T19:39:30.783Z,9.84
2019-05-11T19:42:17.854Z,9.80
2019-05-11T19:45:04.364Z,9.66
2019-05-11T19:47:50.500Z,9.67
2019-05-11T19:50:40.331Z,9.65
2019-05-11T19:53:24.820Z,9.52
2019-05-11T19:56:11.085Z,9.53
2019-05-11T19:58:57.935Z,9.50
2019-05-11T20:01:44.464Z,9.36
2019-05-11T20:04:30.630Z,9.30
2019-05-11T20:07:18.329Z,9.25
2019-05-11T20:10:04.879Z,9.18
2019-05-11T20:12:50.966Z,9.12
2019-05-11T20:15:38.120Z,9.09
2019-05-11T20:18:24.760Z,8.94
2019-05-11T20:21:19.296Z,9.00
2019-05-11T20:23:59.105Z,8.89
2019-05-11T20:26:45.519Z,8.83
2019-05-11T20:29:31.920Z,8.82
2019-05-11T20:32:18.706Z,8.73
2019-05-11T20:35:04.761Z,8.72
2019-05-11T20:37:50.963Z,8.62
2019-05-11T20:40:37.815Z,8.59
2019-05-11T20:43:24.309Z,8.60
2019-05-11T20:46:10.358Z,8.47
2019-05-11T20:48:57.959Z,8.45
2019-05-11T20:51:44.129Z,8.43
2019-05-11T20:54:30.454Z,8.41
2019-05-11T20:57:17.966Z,8.35
2019-05-11T21:00:04.713Z,8.23
2019-05-11T21:02:50.735Z,8.22
2019-05-11T21:05:36.710Z,8.17
2019-05-11T21:08:22.876Z,8.09
2019-05-11T21:11:08.998Z,8.07
2019-05-11T21:13:55.196Z,7.99
2019-05-11T21:16:41.364Z,7.96
2019-05-11T21:19:28.460Z,7.99
2019-05-11T21:22:14.632Z,7.86
2019-05-11T21:25:00.682Z,7.77
2019-05-11T21:27:48.653Z,7.82
2019-05-11T21:30:35.161Z,7.75
2019-05-11T21:33:21.291Z,7.77
2019-05-11T21:36:08.812Z,7.73
2019-05-11T21:38:55.174Z,7.66
2019-05-11T21:41:41.343Z,7.56
2019-05-11T21:44:27.899Z,7.54
2019-05-11T21:47:14.080Z,7.49
2019-05-11T21:50:00.238Z,7.46
2019-05-11T21:52:48.439Z,7.42
2019-05-11T21:55:34.640Z,7.37
2019-05-11T21:58:20.750Z,7.29
2019-05-11T22:01:07.037Z,7.31
2019-05-11T22:03:53.930Z,7.23
2019-05-11T22:06:40.035Z,7.20
2019-05-11T22:09:27.795Z,7.24
2019-05-11T22:12:13.848Z,7.14
2019-05-11T22:15:00.166Z,7.09
2019-05-11T22:17:48.060Z,7.01
2019-05-11T22:20:34.457Z,7.01
2019-05-11T22:23:20.607Z,7.01
2019-05-11T22:26:07.749Z,7.00
2019-05-11T22:28:53.960Z,6.93
2019-05-11T22:31:42.106Z,6.89
2019-05-11T22:34:28.552Z,6.90
2019-05-11T22:37:14.505Z,6.93
2019-05-11T22:40:00.636Z,6.83
2019-05-11T22:42:47.142Z,6.79
2019-05-11T22:45:33.200Z,6.76
2019-05-11T22:48:19.340Z,6.66
2019-05-11T22:51:07.841Z,6.68
2019-05-11T22:53:53.734Z,6.55
2019-05-11T22:56:39.810Z,6.59
2019-05-11T22:59:28.109Z,6.55
2019-05-11T23:02:14.260Z,6.49
2019-05-11T23:05:00.475Z,6.48
2019-05-11T23:07:48.132Z,6.45
2019-05-11T23:10:34.375Z,6.42
2019-05-11T23:13:20.291Z,6.38
2019-05-11T23:16:08.535Z,6.31
2019-05-11T23:18:54.765Z,6.30
2019-05-11T23:21:40.812Z,6.29
2019-05-11T23:24:28.709Z,6.31
2019-05-11T23:27:15.130Z,6.32
2019-05-11T23:30:01.237Z,6.32
2019-05-11T23:32:48.571Z,6.33
2019-05-11T23:35:35.090Z,6.33
2019-05-11T23:38:21.160Z,6.33
2019-05-11T23:41:22.625Z,6.31
2019-05-11T23:43:58.367Z,6.36
2019-05-11T23:46:44.721Z,6.34
2019-05-11T23:49:30.920Z,6.31
2019-05-11T23:52:18.072Z,6.30
2019-05-11T23:55:04.400Z,6.26
2019-05-11T23:57:50.360Z,6.24
